createdAt,value
2019-03-13T00:00:49.807Z,3.94
2019-03-13T00:03:18.228Z,3.96
2019-03-13T00:05:46.511Z,4.23
2019-03-13T00:08:14.846Z,5.18
2019-03-13T00:11:23.561Z,6.15
2019-03-13T00:13:52.174Z,6.48
2019-03-13T00:16:20.898Z,6.74
2019-03-13T00:18:49.165Z,6.78
2019-03-13T00:21:17.786Z,6.87
2019-03-13T00:23:45.301Z,6.81
2019-03-13T00:26:13.216Z,6.85
2019-03-13T00:28:41.687Z,6.77
2019-03-13T00:31:09.621Z,6.69
2019-03-13T00:33:38.147Z,6.55
2019-03-13T00:36:06.981Z,6.40
2019-03-13T00:38:35.266Z,5.89
2019-03-13T00:41:03.811Z,5.04
2019-03-13T00:43:31.763Z,4.78
2019-03-13T00:46:00.334Z,4.66
2019-03-13T00:48:28.231Z,4.63
2019-03-13T00:50:56.427Z,4.57
2019-03-13T00:53:25.090Z,4.55
2019-03-13T00:55:52.948Z,4.54
2019-03-13T00:58:21.326Z,4.39
2019-03-13T01:01:08.715Z,4.14
2019-03-13T01:06:48.881Z,3.73
2019-03-13T01:09:19.630Z,3.65
2019-03-13T01:11:47.605Z,3.55
2019-03-13T01:17:24.964Z,3.34
2019-03-13T01:23:01.592Z,3.13
2019-03-13T01:25:30.387Z,3.03
2019-03-13T01:27:58.292Z,2.96
2019-03-13T01:33:17.344Z,2.83
2019-03-13T01:35:49.429Z,2.73
2019-03-13T01:38:17.358Z,2.65
2019-03-13T01:40:45.130Z,2.63
2019-03-13T01:43:13.108Z,2.57
2019-03-13T01:45:40.990Z,2.48
2019-03-13T01:48:09.266Z,2.43
2019-03-13T01:50:50.022Z,2.39
2019-03-13T01:53:17.896Z,2.34
2019-03-13T01:55:45.781Z,2.34
2019-03-13T01:58:14.583Z,2.38
2019-03-13T02:00:43.159Z,2.36
2019-03-13T02:03:11.811Z,2.33
2019-03-13T02:05:39.727Z,2.27
2019-03-13T02:08:08.039Z,2.23
2019-03-13T02:10:36.323Z,2.21
2019-03-13T02:13:05.071Z,2.20
2019-03-13T02:15:33.643Z,2.18
2019-03-13T02:18:01.846Z,2.13
2019-03-13T02:20:30.491Z,2.11
2019-03-13T02:22:59.150Z,2.09
2019-03-13T02:25:27.516Z,2.03
2019-03-13T02:27:55.487Z,2.05
2019-03-13T02:33:04.237Z,1.99
2019-03-13T02:35:32.407Z,2.01
2019-03-13T02:38:00.612Z,2.02
2019-03-13T02:40:29.273Z,2.05
2019-03-13T02:42:57.785Z,1.96
2019-03-13T02:45:26.067Z,1.95
2019-03-13T02:47:54.658Z,1.96
2019-03-13T02:50:22.837Z,1.98
2019-03-13T02:52:51.343Z,1.99
2019-03-13T02:55:19.907Z,1.92
2019-03-13T02:57:47.884Z,1.91
2019-03-13T03:02:58.393Z,1.87
2019-03-13T03:05:26.020Z,1.86
2019-03-13T03:07:54.604Z,1.79
2019-03-13T03:10:23.202Z,1.78
2019-03-13T03:12:51.877Z,1.77
2019-03-13T03:15:20.547Z,1.77
2019-03-13T03:17:48.802Z,1.76
2019-03-13T03:20:17.606Z,1.78
2019-03-13T03:22:45.857Z,1.81
2019-03-13T03:25:14.235Z,1.85
2019-03-13T03:27:42.835Z,1.83
2019-03-13T03:30:14.729Z,1.88
2019-03-13T03:32:42.804Z,1.92
2019-03-13T03:35:11.189Z,1.87
2019-03-13T03:37:39.338Z,1.91
2019-03-13T03:40:09.619Z,1.90
2019-03-13T03:42:37.951Z,1.89
2019-03-13T03:45:06.947Z,1.82
2019-03-13T03:47:35.514Z,1.84
2019-03-13T03:50:04.426Z,1.90
2019-03-13T03:52:32.793Z,1.89
2019-03-13T03:55:01.520Z,1.86
2019-03-13T03:57:30.240Z,1.89
2019-03-13T03:59:58.869Z,1.91
2019-03-13T04:02:27.404Z,1.91
2019-03-13T04:04:56.054Z,1.91
2019-03-13T04:07:24.320Z,1.91
2019-03-13T04:09:52.214Z,1.90
2019-03-13T04:12:20.171Z,1.82
2019-03-13T04:14:48.788Z,1.71
2019-03-13T04:17:17.040Z,1.58
2019-03-13T04:19:44.905Z,1.40
2019-03-13T04:22:13.464Z,1.18
2019-03-13T04:24:42.144Z,1.07
2019-03-13T04:27:10.906Z,0.93
2019-03-13T04:30:19.116Z,0.92
2019-03-13T04:42:10.213Z,0.70
2019-03-13T04:44:38.498Z,0.74
2019-03-13T04:47:18.627Z,0.77
2019-03-13T04:50:06.266Z,0.74
2019-03-13T04:53:14.209Z,0.78
2019-03-13T04:55:42.823Z,0.84
2019-03-13T04:58:11.102Z,0.85
2019-03-13T05:03:40.740Z,0.87
2019-03-13T05:06:54.246Z,0.91
2019-03-13T05:09:41.866Z,0.85
2019-03-13T05:12:50.458Z,0.89
2019-03-13T05:18:19.673Z,0.96
2019-03-13T05:20:47.652Z,0.85
2019-03-13T05:23:16.365Z,0.88
2019-03-13T05:25:45.141Z,0.85
2019-03-13T05:28:13.716Z,0.88
2019-03-13T05:30:41.856Z,0.87
2019-03-13T05:33:10.224Z,0.89
2019-03-13T05:35:38.881Z,1.01
2019-03-13T05:41:28.061Z,1.02
2019-03-13T05:43:56.267Z,1.03
2019-03-13T05:46:25.008Z,0.98
2019-03-13T05:48:53.204Z,0.95
2019-03-13T05:51:21.441Z,0.91
2019-03-13T05:53:49.773Z,0.87
2019-03-13T05:56:18.037Z,0.93
2019-03-13T05:58:46.361Z,0.83
2019-03-13T06:01:14.288Z,0.79
2019-03-13T06:04:22.900Z,0.75
2019-03-13T06:06:51.502Z,0.76
2019-03-13T06:09:20.084Z,0.77
2019-03-13T06:11:48.622Z,0.84
2019-03-13T06:14:17.119Z,0.85
2019-03-13T06:16:45.829Z,0.81
2019-03-13T06:19:13.913Z,0.87
2019-03-13T06:21:42.558Z,0.91
2019-03-13T06:24:10.869Z,0.90
2019-03-13T06:26:39.109Z,0.96
2019-03-13T06:29:07.394Z,1.05
2019-03-13T06:31:35.642Z,1.10
2019-03-13T06:34:03.886Z,1.14
2019-03-13T06:36:31.692Z,1.22
2019-03-13T06:38:59.989Z,1.36
2019-03-13T06:41:28.257Z,1.43
2019-03-13T06:43:56.131Z,1.38
2019-03-13T06:46:24.424Z,1.29
2019-03-13T06:48:52.693Z,1.15
2019-03-13T06:51:20.877Z,1.00
2019-03-13T06:53:49.575Z,0.90
2019-03-13T06:56:17.478Z,0.87
2019-03-13T06:59:04.899Z,1.03
2019-03-13T07:02:01.609Z,1.09
2019-03-13T07:05:10.199Z,1.18
2019-03-13T07:07:58.145Z,1.27
2019-03-13T07:11:03.853Z,1.30
2019-03-13T07:14:12.492Z,1.18
2019-03-13T07:16:59.983Z,1.11
2019-03-13T07:19:47.312Z,1.16
2019-03-13T07:22:35.132Z,1.25
2019-03-13T07:25:23.337Z,1.19
2019-03-13T07:28:10.782Z,1.32
2019-03-13T07:30:58.727Z,1.40
2019-03-13T07:33:46.089Z,1.32
2019-03-13T07:36:33.201Z,1.48
2019-03-13T07:39:20.973Z,1.64
2019-03-13T07:42:08.893Z,1.81
2019-03-13T07:44:56.345Z,2.05
2019-03-13T07:50:39.742Z,2.17
2019-03-13T07:53:19.037Z,2.34
2019-03-13T07:56:00.134Z,2.44
2019-03-13T07:58:47.844Z,2.54
2019-03-13T08:01:35.595Z,2.50
2019-03-13T08:04:12.762Z,2.49
2019-03-13T08:07:00.265Z,2.50
2019-03-13T08:09:47.584Z,2.42
2019-03-13T08:12:35.356Z,2.32
2019-03-13T08:15:22.484Z,2.34
2019-03-13T08:18:09.491Z,2.30
2019-03-13T08:20:56.472Z,2.33
2019-03-13T08:23:43.815Z,2.43
2019-03-13T08:26:31.528Z,2.49
2019-03-13T08:29:18.956Z,2.53
2019-03-13T08:32:05.993Z,2.57
2019-03-13T08:34:53.888Z,2.66
2019-03-13T08:37:28.026Z,2.91
2019-03-13T08:40:15.407Z,3.08
2019-03-13T08:43:02.802Z,3.22
2019-03-13T08:45:50.657Z,3.39
2019-03-13T08:48:38.229Z,3.35
2019-03-13T08:51:26.007Z,3.23
2019-03-13T08:54:14.521Z,3.20
2019-03-13T08:57:02.275Z,3.10
2019-03-13T08:59:49.610Z,2.95
2019-03-13T09:02:37.093Z,2.87
2019-03-13T09:05:24.600Z,2.85
2019-03-13T09:08:12.349Z,2.80
2019-03-13T09:11:19.104Z,2.79
2019-03-13T09:14:06.974Z,2.85
2019-03-13T09:16:54.298Z,2.96
2019-03-13T09:19:42.054Z,3.03
2019-03-13T09:22:29.572Z,3.18
2019-03-13T09:25:17.315Z,3.36
2019-03-13T09:28:05.074Z,3.41
2019-03-13T09:30:52.542Z,3.64
2019-03-13T09:33:40.413Z,3.76
2019-03-13T09:36:15.931Z,3.69
2019-03-13T09:39:03.385Z,3.69
2019-03-13T09:41:50.918Z,3.84
2019-03-13T09:44:38.676Z,3.72
2019-03-13T09:47:14.996Z,3.70
2019-03-13T09:50:02.553Z,3.78
2019-03-13T09:52:50.400Z,4.15
2019-03-13T09:55:37.772Z,4.67
2019-03-13T09:58:42.994Z,4.51
2019-03-13T10:01:30.686Z,5.27
2019-03-13T10:04:20.464Z,5.15
2019-03-13T10:07:08.422Z,4.67
2019-03-13T10:09:56.657Z,4.38
2019-03-13T10:12:44.064Z,4.18
2019-03-13T10:15:33.063Z,4.25
2019-03-13T10:18:09.576Z,4.21
2019-03-13T10:20:57.117Z,4.09
2019-03-13T10:23:44.934Z,4.00
2019-03-13T10:26:32.024Z,4.15
2019-03-13T10:29:19.907Z,4.14
2019-03-13T10:31:54.100Z,4.06
2019-03-13T10:34:41.914Z,3.99
2019-03-13T10:37:29.760Z,3.84
2019-03-13T10:40:17.142Z,3.74
2019-03-13T10:43:04.998Z,3.74
2019-03-13T10:45:39.744Z,3.64
2019-03-13T10:48:27.122Z,3.64
2019-03-13T10:51:26.652Z,3.68
2019-03-13T10:54:13.792Z,3.75
2019-03-13T10:57:01.427Z,4.71
2019-03-13T10:59:46.398Z,5.49
2019-03-13T11:02:33.853Z,4.88
2019-03-13T11:05:20.872Z,4.43
2019-03-13T11:08:08.694Z,4.17
2019-03-13T11:11:15.131Z,3.98
2019-03-13T11:17:21.097Z,3.61
2019-03-13T11:20:09.132Z,5.00
2019-03-13T11:22:55.975Z,6.01
2019-03-13T11:25:43.744Z,5.79
2019-03-13T11:28:19.213Z,5.51
2019-03-13T11:31:06.907Z,5.06
2019-03-13T11:33:55.302Z,4.90
2019-03-13T11:36:43.198Z,4.64
2019-03-13T11:39:30.763Z,4.23
2019-03-13T11:42:18.526Z,4.04
2019-03-13T11:45:00.952Z,3.99
2019-03-13T11:47:48.754Z,4.09
2019-03-13T11:50:54.928Z,4.05
2019-03-13T11:53:33.610Z,3.83
2019-03-13T11:56:20.969Z,3.71
2019-03-13T11:59:08.819Z,3.60
2019-03-13T12:01:56.710Z,3.61
2019-03-13T12:04:44.547Z,3.53
2019-03-13T12:07:23.654Z,3.53
2019-03-13T12:10:11.716Z,3.59
2019-03-13T12:12:50.688Z,3.71
2019-03-13T12:15:38.268Z,3.80
2019-03-13T12:18:25.694Z,3.74
2019-03-13T12:21:24.503Z,3.79
2019-03-13T12:24:11.947Z,3.82
2019-03-13T12:26:59.903Z,3.91
2019-03-13T12:29:47.367Z,4.01
2019-03-13T12:32:34.492Z,4.14
2019-03-13T12:35:21.956Z,4.21
2019-03-13T12:38:09.387Z,4.31
2019-03-13T12:41:05.792Z,4.62
2019-03-13T12:43:42.045Z,5.11
2019-03-13T12:46:29.379Z,5.99
2019-03-13T12:49:17.198Z,6.23
2019-03-13T12:52:04.984Z,6.42
2019-03-13T12:54:52.877Z,6.81
2019-03-13T12:57:40.261Z,6.56
2019-03-13T13:00:30.818Z,6.60
2019-03-13T13:03:18.320Z,6.75
2019-03-13T13:06:06.085Z,6.67
2019-03-13T13:08:53.938Z,6.38
2019-03-13T13:11:32.941Z,6.21
2019-03-13T13:14:20.678Z,5.76
2019-03-13T13:17:08.201Z,5.44
2019-03-13T13:19:55.740Z,4.42
2019-03-13T13:22:24.358Z,3.63
2019-03-13T13:24:52.200Z,3.40
2019-03-13T13:27:20.907Z,3.22
2019-03-13T13:29:49.104Z,2.79
2019-03-13T13:32:17.028Z,2.82
2019-03-13T13:34:45.752Z,2.81
2019-03-13T13:37:14.643Z,3.10
2019-03-13T13:39:42.923Z,3.30
2019-03-13T13:42:11.110Z,3.40
2019-03-13T13:44:39.382Z,3.72
2019-03-13T13:47:07.890Z,3.98
2019-03-13T13:49:36.821Z,4.20
2019-03-13T13:52:04.710Z,4.21
2019-03-13T13:54:33.352Z,4.24
2019-03-13T13:57:02.238Z,4.11
2019-03-13T13:59:30.424Z,3.88
2019-03-13T14:01:58.648Z,3.45
2019-03-13T14:04:26.934Z,2.61
2019-03-13T14:06:55.719Z,1.94
2019-03-13T14:09:23.896Z,1.74
2019-03-13T14:11:52.466Z,2.10
2019-03-13T14:14:20.819Z,2.57
2019-03-13T14:19:18.435Z,4.30
2019-03-13T14:21:46.499Z,5.47
2019-03-13T14:24:17.243Z,5.69
2019-03-13T14:27:31.146Z,7.07
2019-03-13T14:29:59.499Z,8.72
2019-03-13T14:32:28.214Z,9.72
2019-03-13T14:34:56.219Z,10.88
2019-03-13T14:37:24.479Z,10.79
2019-03-13T14:42:54.504Z,11.17
2019-03-13T14:45:22.718Z,8.98
2019-03-13T14:47:51.055Z,6.68
2019-03-13T14:50:18.930Z,5.77
2019-03-13T14:52:47.655Z,5.26
2019-03-13T14:57:55.659Z,4.75
2019-03-13T15:00:24.458Z,4.63
2019-03-13T15:02:53.009Z,4.47
2019-03-13T15:05:21.431Z,4.56
2019-03-13T15:07:49.800Z,5.32
2019-03-13T15:10:18.289Z,6.39
2019-03-13T15:12:45.506Z,8.10
2019-03-13T15:15:13.481Z,8.99
2019-03-13T15:17:42.116Z,8.36
2019-03-13T15:20:12.676Z,6.82
2019-03-13T15:22:41.009Z,5.53
2019-03-13T15:25:10.194Z,5.01
2019-03-13T15:27:39.044Z,4.77
2019-03-13T15:30:13.441Z,4.79
2019-03-13T15:32:42.060Z,5.49
2019-03-13T15:35:10.651Z,6.70
2019-03-13T15:37:39.504Z,7.18
2019-03-13T15:40:12.221Z,6.26
2019-03-13T15:42:39.875Z,5.79
2019-03-13T15:45:10.215Z,5.32
2019-03-13T15:47:38.714Z,4.82
2019-03-13T15:50:08.129Z,4.62
2019-03-13T15:52:36.488Z,4.53
2019-03-13T15:55:04.549Z,4.44
2019-03-13T15:57:32.945Z,4.39
2019-03-13T16:00:01.176Z,4.46
2019-03-13T16:02:29.735Z,4.48
2019-03-13T16:04:57.698Z,4.42
2019-03-13T16:07:25.843Z,4.34
2019-03-13T16:09:54.552Z,4.26
2019-03-13T16:12:22.839Z,4.17
2019-03-13T16:14:51.370Z,4.17
2019-03-13T16:17:19.703Z,4.13
2019-03-13T16:19:47.961Z,4.07
2019-03-13T16:25:06.370Z,3.83
2019-03-13T16:27:34.846Z,3.67
2019-03-13T16:30:03.348Z,3.60
2019-03-13T16:32:43.342Z,3.53
2019-03-13T16:35:08.049Z,3.54
2019-03-13T16:37:36.045Z,3.46
2019-03-13T16:40:04.634Z,3.49
2019-03-13T16:42:33.440Z,3.53
2019-03-13T16:45:01.560Z,3.61
2019-03-13T16:47:29.781Z,3.61
2019-03-13T16:49:58.049Z,3.67
2019-03-13T16:52:26.565Z,3.77
2019-03-13T16:54:54.891Z,3.83
2019-03-13T16:57:22.814Z,3.88
2019-03-13T17:00:00.044Z,3.85
2019-03-13T17:02:27.978Z,3.84
2019-03-13T17:07:57.924Z,3.78
2019-03-13T17:10:26.415Z,3.67
2019-03-13T17:12:54.655Z,3.52
2019-03-13T17:15:23.049Z,3.47
2019-03-13T17:17:51.071Z,3.42
2019-03-13T17:20:21.123Z,3.37
2019-03-13T17:22:48.692Z,3.33
2019-03-13T17:25:17.942Z,3.28
2019-03-13T17:30:48.559Z,3.22
2019-03-13T17:33:17.193Z,3.18
2019-03-13T17:35:45.559Z,3.21
2019-03-13T17:38:13.431Z,3.22
2019-03-13T17:40:42.233Z,3.19
2019-03-13T17:43:10.965Z,3.21
2019-03-13T17:45:39.604Z,3.21
2019-03-13T17:48:08.138Z,3.20
2019-03-13T17:50:36.249Z,3.20
2019-03-13T17:53:04.731Z,3.15
2019-03-13T17:55:33.075Z,3.15
2019-03-13T17:58:01.674Z,3.10
2019-03-13T18:03:31.399Z,3.08
2019-03-13T18:05:59.882Z,3.14
2019-03-13T18:08:28.204Z,3.15
2019-03-13T18:10:55.715Z,3.15
2019-03-13T18:13:23.870Z,3.12
2019-03-13T18:15:52.365Z,3.17
2019-03-13T18:18:20.230Z,3.28
2019-03-13T18:20:48.915Z,3.22
2019-03-13T18:23:17.613Z,3.23
2019-03-13T18:25:45.980Z,3.29
2019-03-13T18:28:14.795Z,3.32
2019-03-13T18:31:02.613Z,3.30
2019-03-13T18:33:30.947Z,3.26
2019-03-13T18:35:58.941Z,3.22
2019-03-13T18:38:27.253Z,3.21
2019-03-13T18:40:55.538Z,3.16
2019-03-13T18:43:24.350Z,3.13
2019-03-13T18:45:53.217Z,3.11
2019-03-13T18:48:21.607Z,3.16
2019-03-13T18:50:49.566Z,3.15
2019-03-13T18:53:17.855Z,3.18
2019-03-13T18:55:45.434Z,3.23
2019-03-13T18:58:14.424Z,3.24
2019-03-13T19:00:43.239Z,3.35
2019-03-13T19:03:11.593Z,3.34
2019-03-13T19:05:40.000Z,3.35
2019-03-13T19:08:08.500Z,3.36
2019-03-13T19:10:37.729Z,3.38
2019-03-13T19:13:46.408Z,3.34
2019-03-13T19:16:27.034Z,3.30
2019-03-13T19:18:55.035Z,3.21
2019-03-13T19:21:23.961Z,3.16
2019-03-13T19:23:52.724Z,2.94
2019-03-13T19:26:21.183Z,2.71
2019-03-13T19:28:49.475Z,2.42
2019-03-13T19:31:18.064Z,2.16
2019-03-13T19:33:46.519Z,2.04
2019-03-13T19:36:14.751Z,2.00
2019-03-13T19:38:42.869Z,1.90
2019-03-13T19:41:11.306Z,1.90
2019-03-13T19:44:19.989Z,1.90
2019-03-13T19:46:47.991Z,1.91
2019-03-13T19:49:16.508Z,1.91
2019-03-13T19:51:44.939Z,1.92
2019-03-13T19:54:13.033Z,1.97
2019-03-13T19:56:41.570Z,2.00
2019-03-13T19:59:09.999Z,1.97
2019-03-13T20:01:37.970Z,1.99
2019-03-13T20:04:06.711Z,1.96
2019-03-13T20:06:42.149Z,1.96
2019-03-13T20:09:11.721Z,1.96
2019-03-13T20:11:40.446Z,1.99
2019-03-13T20:14:09.245Z,2.02
2019-03-13T20:16:37.689Z,2.00
2019-03-13T20:19:06.158Z,2.04
2019-03-13T20:21:34.469Z,2.09
2019-03-13T20:24:02.876Z,2.13
2019-03-13T20:26:31.059Z,2.10
2019-03-13T20:28:59.305Z,2.06
2019-03-13T20:31:27.700Z,2.13
2019-03-13T20:33:56.071Z,2.14
2019-03-13T20:36:24.095Z,2.13
2019-03-13T20:38:52.220Z,2.13
2019-03-13T20:41:20.919Z,2.14
2019-03-13T20:43:49.314Z,2.17
2019-03-13T20:46:17.670Z,2.13
2019-03-13T20:48:46.178Z,2.16
2019-03-13T20:51:14.949Z,2.13
2019-03-13T20:53:43.445Z,2.14
2019-03-13T20:56:11.105Z,2.17
2019-03-13T20:58:39.786Z,2.14
2019-03-13T21:01:08.362Z,2.02
2019-03-13T21:03:37.001Z,1.78
2019-03-13T21:06:04.966Z,1.56
2019-03-13T21:11:13.317Z,1.42
2019-03-13T21:14:21.886Z,1.38
2019-03-13T21:16:50.400Z,1.44
2019-03-13T21:19:59.035Z,1.47
2019-03-13T21:22:39.915Z,1.48
2019-03-13T21:25:08.441Z,1.54
2019-03-13T21:27:56.704Z,1.54
2019-03-13T21:30:25.116Z,1.59
2019-03-13T21:35:55.800Z,1.74
2019-03-13T21:38:44.527Z,1.81
2019-03-13T21:44:13.154Z,2.00
2019-03-13T21:46:41.788Z,1.94
2019-03-13T21:49:29.792Z,2.01
2019-03-13T21:51:58.674Z,2.03
2019-03-13T21:54:26.460Z,2.01
2019-03-13T21:56:54.795Z,2.06
2019-03-13T21:59:24.061Z,2.09
2019-03-13T22:01:52.413Z,2.10
2019-03-13T22:04:40.150Z,2.12
2019-03-13T22:07:09.483Z,2.14
2019-03-13T22:12:39.239Z,2.10
2019-03-13T22:15:07.786Z,2.12
2019-03-13T22:17:36.136Z,2.05
2019-03-13T22:23:28.556Z,1.95
2019-03-13T22:25:57.424Z,1.95
2019-03-13T22:28:25.698Z,1.95
2019-03-13T22:30:54.474Z,1.94
2019-03-13T22:33:23.570Z,1.89
2019-03-13T22:35:52.106Z,1.87
2019-03-13T22:44:23.696Z,1.78
2019-03-13T22:46:52.212Z,1.77
2019-03-13T22:49:21.255Z,1.81
2019-03-13T22:51:49.505Z,1.83
2019-03-13T22:54:20.100Z,1.79
2019-03-13T22:56:54.755Z,1.75
2019-03-13T22:59:42.046Z,1.68
2019-03-13T23:02:50.639Z,1.51
2019-03-13T23:14:22.635Z,0.97
2019-03-13T23:16:51.223Z,0.89
2019-03-13T23:19:19.546Z,0.86
2019-03-13T23:22:06.960Z,0.87
2019-03-13T23:28:17.801Z,0.87
2019-03-13T23:33:47.399Z,0.97
2019-03-13T23:36:15.583Z,0.98
2019-03-13T23:38:44.161Z,1.01
2019-03-13T23:44:54.653Z,1.01
2019-03-13T23:47:43.391Z,1.08
2019-03-13T23:50:30.995Z,1.11
2019-03-13T23:53:38.952Z,1.13
